sensor_id;sensor_type;location;lat;lon;timestamp;P1;durP1;ratioP1;P2;durP2;ratioP2
8622;SDS011;4349;47.552;8.904;2023-02-21T00:01:24;4.97;;;4.53;;
8622;SDS011;4349;47.552;8.904;2023-02-21T00:04:09;5.13;;;4.70;;
8622;SDS011;4349;47.552;8.904;2023-02-21T00:06:54;5.47;;;4.97;;
8622;SDS011;4349;47.552;8.904;2023-02-21T00:09:39;5.37;;;5.07;;
8622;SDS011;4349;47.552;8.904;2023-02-21T00:12:24;5.23;;;4.83;;
8622;SDS011;4349;47.552;8.904;2023-02-21T00:15:10;5.00;;;4.60;;
8622;SDS011;4349;47.552;8.904;2023-02-21T00:17:55;4.73;;;4.30;;
8622;SDS011;4349;47.552;8.904;2023-02-21T00:20:41;5.27;;;4.80;;
8622;SDS011;4349;47.552;8.904;2023-02-21T00:23:25;4.67;;;4.37;;
8622;SDS011;4349;47.552;8.904;2023-02-21T00:26:15;5.17;;;4.70;;
8622;SDS011;4349;47.552;8.904;2023-02-21T00:29:01;6.30;;;5.70;;
8622;SDS011;4349;47.552;8.904;2023-02-21T00:31:47;5.63;;;5.23;;
8622;SDS011;4349;47.552;8.904;2023-02-21T00:34:32;5.93;;;5.33;;
8622;SDS011;4349;47.552;8.904;2023-02-21T00:37:19;5.50;;;5.03;;
8622;SDS011;4349;47.552;8.904;2023-02-21T00:40:05;5.37;;;4.93;;
8622;SDS011;4349;47.552;8.904;2023-02-21T00:42:50;5.90;;;5.37;;
8622;SDS011;4349;47.552;8.904;2023-02-21T00:45:35;6.23;;;5.63;;
8622;SDS011;4349;47.552;8.904;2023-02-21T00:48:22;5.40;;;4.90;;
8622;SDS011;4349;47.552;8.904;2023-02-21T00:51:07;5.40;;;5.03;;
8622;SDS011;4349;47.552;8.904;2023-02-21T00:53:52;5.93;;;5.43;;
8622;SDS011;4349;47.552;8.904;2023-02-21T00:56:37;5.07;;;4.77;;
8622;SDS011;4349;47.552;8.904;2023-02-21T00:59:22;4.90;;;4.50;;
8622;SDS011;4349;47.552;8.904;2023-02-21T01:02:08;5.00;;;4.50;;
8622;SDS011;4349;47.552;8.904;2023-02-21T01:04:55;4.77;;;4.37;;
8622;SDS011;4349;47.552;8.904;2023-02-21T01:07:40;4.83;;;4.50;;
8622;SDS011;4349;47.552;8.904;2023-02-21T01:10:27;4.40;;;4.03;;
8622;SDS011;4349;47.552;8.904;2023-02-21T01:13:12;4.73;;;4.00;;
8622;SDS011;4349;47.552;8.904;2023-02-21T01:15:56;4.50;;;4.10;;
8622;SDS011;4349;47.552;8.904;2023-02-21T01:18:41;4.00;;;3.77;;
8622;SDS011;4349;47.552;8.904;2023-02-21T01:21:28;4.90;;;4.43;;
8622;SDS011;4349;47.552;8.904;2023-02-21T01:24:14;4.33;;;3.93;;
8622;SDS011;4349;47.552;8.904;2023-02-21T01:27:01;4.67;;;4.43;;
8622;SDS011;4349;47.552;8.904;2023-02-21T01:29:49;4.60;;;4.20;;
8622;SDS011;4349;47.552;8.904;2023-02-21T01:32:38;4.80;;;4.50;;
8622;SDS011;4349;47.552;8.904;2023-02-21T01:35:26;5.40;;;4.90;;
8622;SDS011;4349;47.552;8.904;2023-02-21T01:38:14;5.50;;;5.00;;
8622;SDS011;4349;47.552;8.904;2023-02-21T01:40:59;5.40;;;4.90;;
8622;SDS011;4349;47.552;8.904;2023-02-21T01:43:58;5.03;;;4.73;;
8622;SDS011;4349;47.552;8.904;2023-02-21T01:46:44;4.30;;;4.10;;
8622;SDS011;4349;47.552;8.904;2023-02-21T01:49:29;4.70;;;4.30;;
8622;SDS011;4349;47.552;8.904;2023-02-21T01:52:15;4.40;;;4.17;;
8622;SDS011;4349;47.552;8.904;2023-02-21T01:55:02;4.40;;;4.10;;
8622;SDS011;4349;47.552;8.904;2023-02-21T01:57:51;4.23;;;3.93;;
8622;SDS011;4349;47.552;8.904;2023-02-21T02:00:36;4.07;;;3.77;;
8622;SDS011;4349;47.552;8.904;2023-02-21T02:03:27;5.33;;;4.13;;
8622;SDS011;4349;47.552;8.904;2023-02-21T02:06:14;4.50;;;4.20;;
8622;SDS011;4349;47.552;8.904;2023-02-21T02:09:05;4.93;;;4.53;;
8622;SDS011;4349;47.552;8.904;2023-02-21T02:11:58;4.80;;;4.30;;
8622;SDS011;4349;47.552;8.904;2023-02-21T02:17:35;4.23;;;3.90;;
8622;SDS011;4349;47.552;8.904;2023-02-21T02:20:28;5.67;;;4.40;;
8622;SDS011;4349;47.552;8.904;2023-02-21T02:26:02;4.73;;;4.40;;
8622;SDS011;4349;47.552;8.904;2023-02-21T02:28:40;4.83;;;4.43;;
8622;SDS011;4349;47.552;8.904;2023-02-21T02:31:18;4.53;;;4.20;;
8622;SDS011;4349;47.552;8.904;2023-02-21T02:34:03;4.93;;;4.57;;
8622;SDS011;4349;47.552;8.904;2023-02-21T02:36:40;5.30;;;4.90;;
8622;SDS011;4349;47.552;8.904;2023-02-21T02:39:14;4.40;;;4.10;;
8622;SDS011;4349;47.552;8.904;2023-02-21T02:41:46;4.67;;;4.37;;
8622;SDS011;4349;47.552;8.904;2023-02-21T02:44:18;5.13;;;4.73;;
8622;SDS011;4349;47.552;8.904;2023-02-21T02:46:48;5.27;;;4.80;;
8622;SDS011;4349;47.552;8.904;2023-02-21T02:49:18;5.47;;;5.00;;
8622;SDS011;4349;47.552;8.904;2023-02-21T02:51:49;5.80;;;5.40;;
8622;SDS011;4349;47.552;8.904;2023-02-21T02:54:22;6.13;;;5.63;;
8622;SDS011;4349;47.552;8.904;2023-02-21T02:56:50;6.07;;;5.57;;
8622;SDS011;4349;47.552;8.904;2023-02-21T02:59:18;6.50;;;5.93;;
8622;SDS011;4349;47.552;8.904;2023-02-21T03:01:53;7.00;;;6.30;;
8622;SDS011;4349;47.552;8.904;2023-02-21T03:04:28;6.87;;;6.20;;
8622;SDS011;4349;47.552;8.904;2023-02-21T03:07:01;7.40;;;5.83;;
8622;SDS011;4349;47.552;8.904;2023-02-21T03:09:32;6.83;;;6.23;;
8622;SDS011;4349;47.552;8.904;2023-02-21T03:12:04;6.10;;;5.70;;
8622;SDS011;4349;47.552;8.904;2023-02-21T03:14:34;6.30;;;5.80;;
8622;SDS011;4349;47.552;8.904;2023-02-21T03:17:05;6.20;;;5.80;;
8622;SDS011;4349;47.552;8.904;2023-02-21T03:19:36;6.07;;;5.53;;
8622;SDS011;4349;47.552;8.904;2023-02-21T03:22:07;5.47;;;5.10;;
8622;SDS011;4349;47.552;8.904;2023-02-21T03:24:36;6.07;;;5.50;;
8622;SDS011;4349;47.552;8.904;2023-02-21T03:27:05;6.10;;;5.53;;
8622;SDS011;4349;47.552;8.904;2023-02-21T03:29:48;5.33;;;4.93;;
8622;SDS011;4349;47.552;8.904;2023-02-21T03:32:19;5.77;;;5.37;;
8622;SDS011;4349;47.552;8.904;2023-02-21T03:34:47;5.47;;;5.07;;
8622;SDS011;4349;47.552;8.904;2023-02-21T03:37:19;5.50;;;5.00;;
8622;SDS011;4349;47.552;8.904;2023-02-21T03:39:47;5.63;;;5.10;;
8622;SDS011;4349;47.552;8.904;2023-02-21T03:42:15;5.67;;;5.17;;
8622;SDS011;4349;47.552;8.904;2023-02-21T03:44:44;5.90;;;5.33;;
8622;SDS011;4349;47.552;8.904;2023-02-21T03:47:13;6.80;;;5.40;;
8622;SDS011;4349;47.552;8.904;2023-02-21T03:49:41;5.47;;;5.07;;
8622;SDS011;4349;47.552;8.904;2023-02-21T03:52:10;5.90;;;5.37;;
8622;SDS011;4349;47.552;8.904;2023-02-21T03:54:40;4.90;;;4.60;;
8622;SDS011;4349;47.552;8.904;2023-02-21T03:57:09;5.27;;;4.87;;
8622;SDS011;4349;47.552;8.904;2023-02-21T03:59:40;5.43;;;4.90;;
8622;SDS011;4349;47.552;8.904;2023-02-21T04:02:08;5.53;;;5.13;;
8622;SDS011;4349;47.552;8.904;2023-02-21T04:04:35;5.57;;;5.17;;
8622;SDS011;4349;47.552;8.904;2023-02-21T04:07:08;5.90;;;4.93;;
8622;SDS011;4349;47.552;8.904;2023-02-21T04:09:36;5.40;;;4.97;;
8622;SDS011;4349;47.552;8.904;2023-02-21T04:12:07;5.07;;;4.67;;
8622;SDS011;4349;47.552;8.904;2023-02-21T04:14:37;5.30;;;4.80;;
8622;SDS011;4349;47.552;8.904;2023-02-21T04:17:05;5.27;;;4.67;;
8622;SDS011;4349;47.552;8.904;2023-02-21T04:19:33;5.20;;;4.80;;
8622;SDS011;4349;47.552;8.904;2023-02-21T04:22:03;4.67;;;4.33;;
8622;SDS011;4349;47.552;8.904;2023-02-21T04:24:31;5.17;;;4.87;;
8622;SDS011;4349;47.552;8.904;2023-02-21T04:27:01;4.97;;;4.67;;
8622;SDS011;4349;47.552;8.904;2023-02-21T04:29:33;5.13;;;4.73;;
8622;SDS011;4349;47.552;8.904;2023-02-21T04:32:01;4.93;;;4.63;;
8622;SDS011;4349;47.552;8.904;2023-02-21T04:34:30;5.33;;;4.93;;
8622;SDS011;4349;47.552;8.904;2023-02-21T04:36:58;5.00;;;4.70;;
8622;SDS011;4349;47.552;8.904;2023-02-21T04:39:27;5.20;;;4.73;;
8622;SDS011;4349;47.552;8.904;2023-02-21T04:41:54;4.93;;;4.53;;
8622;SDS011;4349;47.552;8.904;2023-02-21T04:44:22;5.33;;;4.93;;
8622;SDS011;4349;47.552;8.904;2023-02-21T04:46:51;5.00;;;4.60;;
8622;SDS011;4349;47.552;8.904;2023-02-21T04:49:18;5.30;;;4.77;;
8622;SDS011;4349;47.552;8.904;2023-02-21T04:51:46;4.93;;;4.57;;
8622;SDS011;4349;47.552;8.904;2023-02-21T04:54:13;5.83;;;4.83;;
8622;SDS011;4349;47.552;8.904;2023-02-21T04:56:41;5.33;;;4.90;;
8622;SDS011;4349;47.552;8.904;2023-02-21T04:59:10;5.47;;;4.70;;
8622;SDS011;4349;47.552;8.904;2023-02-21T05:01:38;5.73;;;5.23;;
8622;SDS011;4349;47.552;8.904;2023-02-21T05:04:06;5.77;;;5.17;;
8622;SDS011;4349;47.552;8.904;2023-02-21T05:06:34;5.60;;;5.10;;
8622;SDS011;4349;47.552;8.904;2023-02-21T05:09:02;5.53;;;5.10;;
8622;SDS011;4349;47.552;8.904;2023-02-21T05:11:31;6.43;;;5.17;;
8622;SDS011;4349;47.552;8.904;2023-02-21T05:14:00;5.57;;;5.07;;
8622;SDS011;4349;47.552;8.904;2023-02-21T05:16:28;5.83;;;5.33;;
8622;SDS011;4349;47.552;8.904;2023-02-21T05:18:55;5.73;;;5.23;;
8622;SDS011;4349;47.552;8.904;2023-02-21T05:21:24;5.43;;;4.93;;
8622;SDS011;4349;47.552;8.904;2023-02-21T05:23:51;6.10;;;5.60;;
8622;SDS011;4349;47.552;8.904;2023-02-21T05:26:24;5.60;;;5.10;;
8622;SDS011;4349;47.552;8.904;2023-02-21T05:28:52;5.77;;;5.20;;
8622;SDS011;4349;47.552;8.904;2023-02-21T05:31:20;5.20;;;4.80;;
8622;SDS011;4349;47.552;8.904;2023-02-21T05:33:48;5.03;;;4.53;;
8622;SDS011;4349;47.552;8.904;2023-02-21T05:36:16;5.40;;;5.00;;
8622;SDS011;4349;47.552;8.904;2023-02-21T05:38:45;5.00;;;4.57;;
8622;SDS011;4349;47.552;8.904;2023-02-21T05:41:13;5.43;;;4.77;;
8622;SDS011;4349;47.552;8.904;2023-02-21T05:43:42;4.70;;;4.40;;
8622;SDS011;4349;47.552;8.904;2023-02-21T05:46:16;5.33;;;4.83;;
8622;SDS011;4349;47.552;8.904;2023-02-21T05:48:43;4.97;;;4.57;;
8622;SDS011;4349;47.552;8.904;2023-02-21T05:51:11;5.13;;;4.83;;
8622;SDS011;4349;47.552;8.904;2023-02-21T05:53:39;4.90;;;4.50;;
8622;SDS011;4349;47.552;8.904;2023-02-21T05:56:08;5.00;;;4.60;;
8622;SDS011;4349;47.552;8.904;2023-02-21T05:58:36;5.40;;;5.00;;
8622;SDS011;4349;47.552;8.904;2023-02-21T06:01:05;5.70;;;5.13;;
8622;SDS011;4349;47.552;8.904;2023-02-21T06:03:32;5.40;;;5.00;;
8622;SDS011;4349;47.552;8.904;2023-02-21T06:06:00;5.23;;;4.90;;
8622;SDS011;4349;47.552;8.904;2023-02-21T06:08:28;5.20;;;4.70;;
8622;SDS011;4349;47.552;8.904;2023-02-21T06:10:56;5.03;;;4.63;;
8622;SDS011;4349;47.552;8.904;2023-02-21T06:13:24;5.53;;;5.07;;
8622;SDS011;4349;47.552;8.904;2023-02-21T06:15:53;14.30;;;10.43;;
8622;SDS011;4349;47.552;8.904;2023-02-21T06:18:22;6.63;;;5.97;;
8622;SDS011;4349;47.552;8.904;2023-02-21T06:20:49;6.03;;;5.40;;
8622;SDS011;4349;47.552;8.904;2023-02-21T06:23:19;5.40;;;5.00;;
8622;SDS011;4349;47.552;8.904;2023-02-21T06:25:50;5.37;;;4.87;;
8622;SDS011;4349;47.552;8.904;2023-02-21T06:28:18;5.33;;;4.87;;
8622;SDS011;4349;47.552;8.904;2023-02-21T06:30:46;6.27;;;5.67;;
8622;SDS011;4349;47.552;8.904;2023-02-21T06:33:14;5.93;;;5.43;;
8622;SDS011;4349;47.552;8.904;2023-02-21T06:35:42;6.70;;;6.10;;
8622;SDS011;4349;47.552;8.904;2023-02-21T06:38:09;10.40;;;7.20;;
8622;SDS011;4349;47.552;8.904;2023-02-21T06:40:36;6.60;;;6.10;;
8622;SDS011;4349;47.552;8.904;2023-02-21T06:43:04;7.10;;;6.43;;
8622;SDS011;4349;47.552;8.904;2023-02-21T06:45:31;7.03;;;6.43;;
8622;SDS011;4349;47.552;8.904;2023-02-21T06:48:01;7.47;;;6.23;;
8622;SDS011;4349;47.552;8.904;2023-02-21T06:50:30;6.40;;;5.90;;
8622;SDS011;4349;47.552;8.904;2023-02-21T06:52:59;6.97;;;5.77;;
8622;SDS011;4349;47.552;8.904;2023-02-21T06:55:26;5.87;;;5.40;;
8622;SDS011;4349;47.552;8.904;2023-02-21T06:57:54;6.17;;;5.57;;
8622;SDS011;4349;47.552;8.904;2023-02-21T07:00:21;6.10;;;5.60;;
8622;SDS011;4349;47.552;8.904;2023-02-21T07:02:48;6.17;;;5.67;;
8622;SDS011;4349;47.552;8.904;2023-02-21T07:05:17;5.90;;;5.40;;
8622;SDS011;4349;47.552;8.904;2023-02-21T07:07:45;6.43;;;5.83;;
8622;SDS011;4349;47.552;8.904;2023-02-21T07:10:13;6.60;;;5.43;;
8622;SDS011;4349;47.552;8.904;2023-02-21T07:12:42;6.00;;;5.50;;
8622;SDS011;4349;47.552;8.904;2023-02-21T07:15:10;6.23;;;5.63;;
8622;SDS011;4349;47.552;8.904;2023-02-21T07:17:37;6.40;;;5.90;;
8622;SDS011;4349;47.552;8.904;2023-02-21T07:20:05;5.70;;;5.20;;
8622;SDS011;4349;47.552;8.904;2023-02-21T07:22:34;5.53;;;5.03;;
8622;SDS011;4349;47.552;8.904;2023-02-21T07:25:01;5.77;;;5.13;;
8622;SDS011;4349;47.552;8.904;2023-02-21T07:27:29;5.47;;;4.90;;
8622;SDS011;4349;47.552;8.904;2023-02-21T07:29:56;5.57;;;5.17;;
8622;SDS011;4349;47.552;8.904;2023-02-21T07:32:23;6.17;;;5.67;;
8622;SDS011;4349;47.552;8.904;2023-02-21T07:34:51;6.00;;;5.50;;
8622;SDS011;4349;47.552;8.904;2023-02-21T07:37:18;6.37;;;5.70;;
8622;SDS011;4349;47.552;8.904;2023-02-21T07:39:47;6.40;;;5.40;;
8622;SDS011;4349;47.552;8.904;2023-02-21T07:42:14;5.73;;;5.23;;
8622;SDS011;4349;47.552;8.904;2023-02-21T07:44:44;5.50;;;5.10;;
8622;SDS011;4349;47.552;8.904;2023-02-21T07:47:11;5.93;;;5.50;;
8622;SDS011;4349;47.552;8.904;2023-02-21T07:49:39;5.57;;;5.07;;
8622;SDS011;4349;47.552;8.904;2023-02-21T07:52:07;5.67;;;5.17;;
8622;SDS011;4349;47.552;8.904;2023-02-21T07:54:35;6.43;;;5.83;;
8622;SDS011;4349;47.552;8.904;2023-02-21T07:57:04;6.83;;;6.10;;
8622;SDS011;4349;47.552;8.904;2023-02-21T07:59:32;11.60;;;10.17;;
8622;SDS011;4349;47.552;8.904;2023-02-21T08:01:59;11.27;;;9.10;;
8622;SDS011;4349;47.552;8.904;2023-02-21T08:04:27;10.77;;;9.57;;
8622;SDS011;4349;47.552;8.904;2023-02-21T08:06:57;11.53;;;10.23;;
8622;SDS011;4349;47.552;8.904;2023-02-21T08:09:25;11.93;;;10.03;;
8622;SDS011;4349;47.552;8.904;2023-02-21T08:11:52;15.67;;;10.27;;
8622;SDS011;4349;47.552;8.904;2023-02-21T08:14:21;15.10;;;10.80;;
8622;SDS011;4349;47.552;8.904;2023-02-21T08:16:48;12.77;;;11.37;;
8622;SDS011;4349;47.552;8.904;2023-02-21T08:19:16;20.00;;;14.27;;
8622;SDS011;4349;47.552;8.904;2023-02-21T08:21:43;19.00;;;14.33;;
8622;SDS011;4349;47.552;8.904;2023-02-21T08:24:11;14.87;;;13.13;;
8622;SDS011;4349;47.552;8.904;2023-02-21T08:26:39;16.10;;;13.23;;
8622;SDS011;4349;47.552;8.904;2023-02-21T08:29:07;14.03;;;12.53;;
8622;SDS011;4349;47.552;8.904;2023-02-21T08:31:36;14.67;;;12.17;;
8622;SDS011;4349;47.552;8.904;2023-02-21T08:34:04;13.23;;;11.83;;
8622;SDS011;4349;47.552;8.904;2023-02-21T08:36:32;13.20;;;10.33;;
8622;SDS011;4349;47.552;8.904;2023-02-21T08:39:00;12.33;;;11.00;;
8622;SDS011;4349;47.552;8.904;2023-02-21T08:41:33;12.17;;;11.00;;
8622;SDS011;4349;47.552;8.904;2023-02-21T08:44:01;13.70;;;10.90;;
8622;SDS011;4349;47.552;8.904;2023-02-21T08:46:28;10.83;;;9.83;;
8622;SDS011;4349;47.552;8.904;2023-02-21T08:48:57;10.63;;;9.63;;
8622;SDS011;4349;47.552;8.904;2023-02-21T08:51:24;11.97;;;10.77;;
8622;SDS011;4349;47.552;8.904;2023-02-21T08:53:53;10.67;;;9.27;;
8622;SDS011;4349;47.552;8.904;2023-02-21T08:56:21;11.90;;;10.43;;
8622;SDS011;4349;47.552;8.904;2023-02-21T08:58:48;12.33;;;10.80;;
8622;SDS011;4349;47.552;8.904;2023-02-21T09:01:16;12.67;;;11.33;;
8622;SDS011;4349;47.552;8.904;2023-02-21T09:03:44;11.93;;;10.63;;
8622;SDS011;4349;47.552;8.904;2023-02-21T09:06:12;12.40;;;10.30;;
8622;SDS011;4349;47.552;8.904;2023-02-21T09:08:40;12.80;;;10.73;;
8622;SDS011;4349;47.552;8.904;2023-02-21T09:11:09;12.17;;;10.80;;
8622;SDS011;4349;47.552;8.904;2023-02-21T09:13:36;11.30;;;10.20;;
8622;SDS011;4349;47.552;8.904;2023-02-21T09:16:04;17.80;;;10.43;;
8622;SDS011;4349;47.552;8.904;2023-02-21T09:18:32;11.37;;;9.83;;
8622;SDS011;4349;47.552;8.904;2023-02-21T09:21:00;11.43;;;9.53;;
8622;SDS011;4349;47.552;8.904;2023-02-21T09:23:29;9.63;;;8.67;;
8622;SDS011;4349;47.552;8.904;2023-02-21T09:25:59;10.73;;;9.30;;
8622;SDS011;4349;47.552;8.904;2023-02-21T09:28:26;9.00;;;8.20;;
8622;SDS011;4349;47.552;8.904;2023-02-21T09:30:54;10.67;;;9.53;;
8622;SDS011;4349;47.552;8.904;2023-02-21T09:33:21;10.07;;;9.07;;
8622;SDS011;4349;47.552;8.904;2023-02-21T09:35:50;9.17;;;7.47;;
8622;SDS011;4349;47.552;8.904;2023-02-21T09:38:19;8.17;;;7.33;;
8622;SDS011;4349;47.552;8.904;2023-02-21T09:40:48;7.70;;;6.97;;
8622;SDS011;4349;47.552;8.904;2023-02-21T09:43:18;8.50;;;7.60;;
8622;SDS011;4349;47.552;8.904;2023-02-21T09:45:47;7.67;;;6.97;;
8622;SDS011;4349;47.552;8.904;2023-02-21T09:48:17;7.13;;;6.53;;
8622;SDS011;4349;47.552;8.904;2023-02-21T09:50:47;7.93;;;7.20;;
8622;SDS011;4349;47.552;8.904;2023-02-21T09:53:17;10.20;;;8.60;;
8622;SDS011;4349;47.552;8.904;2023-02-21T09:55:45;9.13;;;8.00;;
8622;SDS011;4349;47.552;8.904;2023-02-21T09:58:16;10.33;;;7.90;;
8622;SDS011;4349;47.552;8.904;2023-02-21T10:00:45;7.43;;;6.73;;
8622;SDS011;4349;47.552;8.904;2023-02-21T10:03:25;9.03;;;7.70;;
8622;SDS011;4349;47.552;8.904;2023-02-21T10:05:57;8.43;;;7.20;;
8622;SDS011;4349;47.552;8.904;2023-02-21T10:08:32;8.17;;;7.07;;
8622;SDS011;4349;47.552;8.904;2023-02-21T10:11:06;10.13;;;7.27;;
8622;SDS011;4349;47.552;8.904;2023-02-21T10:13:39;9.63;;;8.23;;
8622;SDS011;4349;47.552;8.904;2023-02-21T10:16:10;9.93;;;8.50;;
8622;SDS011;4349;47.552;8.904;2023-02-21T10:18:40;12.97;;;8.40;;
8622;SDS011;4349;47.552;8.904;2023-02-21T10:21:11;10.20;;;8.77;;
8622;SDS011;4349;47.552;8.904;2023-02-21T10:23:43;9.77;;;8.10;;
8622;SDS011;4349;47.552;8.904;2023-02-21T10:26:13;8.90;;;7.47;;
8622;SDS011;4349;47.552;8.904;2023-02-21T10:28:42;8.70;;;7.90;;
8622;SDS011;4349;47.552;8.904;2023-02-21T10:31:10;8.30;;;7.50;;
8622;SDS011;4349;47.552;8.904;2023-02-21T10:33:40;9.57;;;7.47;;
8622;SDS011;4349;47.552;8.904;2023-02-21T10:36:09;8.77;;;7.97;;
8622;SDS011;4349;47.552;8.904;2023-02-21T10:38:37;14.80;;;7.50;;
8622;SDS011;4349;47.552;8.904;2023-02-21T10:41:06;8.73;;;7.93;;
8622;SDS011;4349;47.552;8.904;2023-02-21T10:43:35;7.97;;;7.27;;
8622;SDS011;4349;47.552;8.904;2023-02-21T10:46:04;8.40;;;7.60;;
8622;SDS011;4349;47.552;8.904;2023-02-21T10:48:35;8.03;;;7.27;;
8622;SDS011;4349;47.552;8.904;2023-02-21T10:51:04;9.30;;;7.27;;
8622;SDS011;4349;47.552;8.904;2023-02-21T10:53:32;7.47;;;6.77;;
8622;SDS011;4349;47.552;8.904;2023-02-21T10:56:23;7.87;;;7.03;;
8622;SDS011;4349;47.552;8.904;2023-02-21T10:58:53;8.43;;;7.00;;
8622;SDS011;4349;47.552;8.904;2023-02-21T11:01:30;6.80;;;6.30;;
8622;SDS011;4349;47.552;8.904;2023-02-21T11:03:58;7.53;;;6.83;;
8622;SDS011;4349;47.552;8.904;2023-02-21T11:06:30;7.97;;;7.27;;
8622;SDS011;4349;47.552;8.904;2023-02-21T11:08:59;9.60;;;7.27;;
8622;SDS011;4349;47.552;8.904;2023-02-21T11:11:31;7.83;;;7.13;;
8622;SDS011;4349;47.552;8.904;2023-02-21T11:14:06;7.63;;;6.93;;
8622;SDS011;4349;47.552;8.904;2023-02-21T11:16:35;8.27;;;7.53;;
8622;SDS011;4349;47.552;8.904;2023-02-21T11:19:03;7.87;;;6.93;;
8622;SDS011;4349;47.552;8.904;2023-02-21T11:21:30;7.70;;;7.10;;
8622;SDS011;4349;47.552;8.904;2023-02-21T11:24:00;7.83;;;7.13;;
8622;SDS011;4349;47.552;8.904;2023-02-21T11:26:28;10.07;;;7.40;;
8622;SDS011;4349;47.552;8.904;2023-02-21T11:29:03;16.90;;;9.73;;
8622;SDS011;4349;47.552;8.904;2023-02-21T11:31:31;27.57;;;12.73;;
8622;SDS011;4349;47.552;8.904;2023-02-21T11:34:01;10.93;;;8.67;;
8622;SDS011;4349;47.552;8.904;2023-02-21T11:36:30;8.17;;;7.37;;
8622;SDS011;4349;47.552;8.904;2023-02-21T11:38:59;8.10;;;7.30;;
8622;SDS011;4349;47.552;8.904;2023-02-21T11:41:28;7.90;;;7.10;;
8622;SDS011;4349;47.552;8.904;2023-02-21T11:43:56;7.67;;;7.07;;
8622;SDS011;4349;47.552;8.904;2023-02-21T11:46:33;8.70;;;7.80;;
8622;SDS011;4349;47.552;8.904;2023-02-21T11:49:04;7.50;;;6.87;;
8622;SDS011;4349;47.552;8.904;2023-02-21T11:51:35;7.43;;;6.80;;
8622;SDS011;4349;47.552;8.904;2023-02-21T11:54:05;8.63;;;7.90;;
8622;SDS011;4349;47.552;8.904;2023-02-21T11:56:49;9.43;;;8.00;;
8622;SDS011;4349;47.552;8.904;2023-02-21T11:59:27;9.27;;;8.37;;
8622;SDS011;4349;47.552;8.904;2023-02-21T12:02:22;8.80;;;8.03;;
8622;SDS011;4349;47.552;8.904;2023-02-21T12:04:55;8.80;;;8.00;;
8622;SDS011;4349;47.552;8.904;2023-02-21T12:07:27;9.10;;;8.23;;
8622;SDS011;4349;47.552;8.904;2023-02-21T12:10:02;10.50;;;8.33;;
8622;SDS011;4349;47.552;8.904;2023-02-21T12:12:34;9.93;;;8.47;;
8622;SDS011;4349;47.552;8.904;2023-02-21T12:15:07;12.43;;;8.70;;
8622;SDS011;4349;47.552;8.904;2023-02-21T12:17:41;8.67;;;7.97;;
8622;SDS011;4349;47.552;8.904;2023-02-21T12:20:17;9.20;;;8.40;;
8622;SDS011;4349;47.552;8.904;2023-02-21T12:22:59;9.07;;;8.20;;
8622;SDS011;4349;47.552;8.904;2023-02-21T12:25:30;11.33;;;8.73;;
8622;SDS011;4349;47.552;8.904;2023-02-21T12:28:01;9.37;;;8.47;;
8622;SDS011;4349;47.552;8.904;2023-02-21T12:30:34;9.37;;;8.40;;
8622;SDS011;4349;47.552;8.904;2023-02-21T12:33:09;8.67;;;7.97;;
8622;SDS011;4349;47.552;8.904;2023-02-21T12:35:52;9.93;;;9.03;;
8622;SDS011;4349;47.552;8.904;2023-02-21T12:38:29;9.17;;;8.37;;
8622;SDS011;4349;47.552;8.904;2023-02-21T12:41:00;9.07;;;8.17;;
8622;SDS011;4349;47.552;8.904;2023-02-21T12:43:35;9.30;;;8.50;;
8622;SDS011;4349;47.552;8.904;2023-02-21T12:46:06;9.03;;;8.13;;
8622;SDS011;4349;47.552;8.904;2023-02-21T12:48:38;10.37;;;7.83;;
8622;SDS011;4349;47.552;8.904;2023-02-21T12:51:12;8.07;;;7.37;;
8622;SDS011;4349;47.552;8.904;2023-02-21T12:53:42;8.83;;;7.10;;
8622;SDS011;4349;47.552;8.904;2023-02-21T12:56:13;7.80;;;7.03;;
8622;SDS011;4349;47.552;8.904;2023-02-21T12:58:42;8.10;;;7.40;;
8622;SDS011;4349;47.552;8.904;2023-02-21T13:01:11;7.23;;;6.63;;
8622;SDS011;4349;47.552;8.904;2023-02-21T13:03:44;7.40;;;6.70;;
8622;SDS011;4349;47.552;8.904;2023-02-21T13:06:17;7.57;;;6.97;;
8622;SDS011;4349;47.552;8.904;2023-02-21T13:08:48;8.07;;;7.27;;
8622;SDS011;4349;47.552;8.904;2023-02-21T13:11:21;8.77;;;7.97;;
8622;SDS011;4349;47.552;8.904;2023-02-21T13:13:48;8.50;;;7.70;;
8622;SDS011;4349;47.552;8.904;2023-02-21T13:16:16;10.30;;;7.90;;
8622;SDS011;4349;47.552;8.904;2023-02-21T13:18:45;9.10;;;8.20;;
8622;SDS011;4349;47.552;8.904;2023-02-21T13:21:16;7.70;;;7.10;;
8622;SDS011;4349;47.552;8.904;2023-02-21T13:23:50;8.60;;;7.77;;
8622;SDS011;4349;47.552;8.904;2023-02-21T13:26:40;7.43;;;6.73;;
8622;SDS011;4349;47.552;8.904;2023-02-21T13:29:12;7.17;;;6.57;;
8622;SDS011;4349;47.552;8.904;2023-02-21T13:31:43;6.40;;;5.80;;
8622;SDS011;4349;47.552;8.904;2023-02-21T13:34:11;6.80;;;6.20;;
8622;SDS011;4349;47.552;8.904;2023-02-21T13:36:44;6.50;;;5.90;;
8622;SDS011;4349;47.552;8.904;2023-02-21T13:39:14;7.40;;;5.97;;
8622;SDS011;4349;47.552;8.904;2023-02-21T13:41:43;6.60;;;5.90;;
8622;SDS011;4349;47.552;8.904;2023-02-21T13:44:12;7.97;;;6.50;;
8622;SDS011;4349;47.552;8.904;2023-02-21T13:47:06;6.97;;;6.20;;
8622;SDS011;4349;47.552;8.904;2023-02-21T13:49:43;6.10;;;5.43;;
8622;SDS011;4349;47.552;8.904;2023-02-21T13:52:15;7.63;;;5.17;;
8622;SDS011;4349;47.552;8.904;2023-02-21T13:55:09;6.30;;;5.73;;
8622;SDS011;4349;47.552;8.904;2023-02-21T13:57:39;5.63;;;4.97;;
8622;SDS011;4349;47.552;8.904;2023-02-21T14:02:53;5.53;;;5.03;;
8622;SDS011;4349;47.552;8.904;2023-02-21T14:05:21;5.50;;;5.10;;
8622;SDS011;4349;47.552;8.904;2023-02-21T14:07:56;5.93;;;4.93;;
8622;SDS011;4349;47.552;8.904;2023-02-21T14:10:27;7.53;;;5.30;;
8622;SDS011;4349;47.552;8.904;2023-02-21T14:12:56;6.13;;;5.63;;
8622;SDS011;4349;47.552;8.904;2023-02-21T14:15:34;5.37;;;4.97;;
8622;SDS011;4349;47.552;8.904;2023-02-21T14:18:03;5.70;;;5.20;;
8622;SDS011;4349;47.552;8.904;2023-02-21T14:20:34;5.93;;;5.20;;
8622;SDS011;4349;47.552;8.904;2023-02-21T14:23:02;5.87;;;5.27;;
8622;SDS011;4349;47.552;8.904;2023-02-21T14:25:32;6.83;;;5.10;;
8622;SDS011;4349;47.552;8.904;2023-02-21T14:28:00;7.27;;;4.93;;
8622;SDS011;4349;47.552;8.904;2023-02-21T14:30:31;5.73;;;5.33;;
8622;SDS011;4349;47.552;8.904;2023-02-21T14:33:06;4.90;;;4.43;;
8622;SDS011;4349;47.552;8.904;2023-02-21T14:35:35;7.63;;;5.20;;
8622;SDS011;4349;47.552;8.904;2023-02-21T14:38:04;6.17;;;4.93;;
8622;SDS011;4349;47.552;8.904;2023-02-21T14:40:38;6.13;;;4.73;;
8622;SDS011;4349;47.552;8.904;2023-02-21T14:43:14;5.67;;;4.93;;
8622;SDS011;4349;47.552;8.904;2023-02-21T14:45:52;5.70;;;4.83;;
8622;SDS011;4349;47.552;8.904;2023-02-21T14:48:29;6.00;;;4.87;;
8622;SDS011;4349;47.552;8.904;2023-02-21T14:51:22;5.20;;;4.40;;
8622;SDS011;4349;47.552;8.904;2023-02-21T14:53:57;4.67;;;4.27;;
8622;SDS011;4349;47.552;8.904;2023-02-21T14:56:45;5.53;;;4.60;;
8622;SDS011;4349;47.552;8.904;2023-02-21T14:59:21;5.47;;;4.70;;
8622;SDS011;4349;47.552;8.904;2023-02-21T15:02:09;6.33;;;4.50;;
8622;SDS011;4349;47.552;8.904;2023-02-21T15:04:42;5.43;;;4.40;;
8622;SDS011;4349;47.552;8.904;2023-02-21T15:07:15;4.77;;;4.23;;
8622;SDS011;4349;47.552;8.904;2023-02-21T15:10:03;4.33;;;4.03;;
8622;SDS011;4349;47.552;8.904;2023-02-21T15:12:34;4.83;;;4.50;;
8622;SDS011;4349;47.552;8.904;2023-02-21T15:15:03;5.83;;;5.33;;
8622;SDS011;4349;47.552;8.904;2023-02-21T15:17:31;5.07;;;4.67;;
8622;SDS011;4349;47.552;8.904;2023-02-21T15:20:00;6.10;;;4.90;;
8622;SDS011;4349;47.552;8.904;2023-02-21T15:22:30;7.10;;;5.37;;
8622;SDS011;4349;47.552;8.904;2023-02-21T15:25:11;5.80;;;5.20;;
8622;SDS011;4349;47.552;8.904;2023-02-21T15:30:36;7.80;;;6.20;;
8622;SDS011;4349;47.552;8.904;2023-02-21T15:33:05;6.90;;;6.33;;
8622;SDS011;4349;47.552;8.904;2023-02-21T15:35:33;7.70;;;6.90;;
8622;SDS011;4349;47.552;8.904;2023-02-21T15:38:02;7.30;;;6.60;;
8622;SDS011;4349;47.552;8.904;2023-02-21T15:40:32;6.93;;;6.30;;
8622;SDS011;4349;47.552;8.904;2023-02-21T15:43:00;7.43;;;6.83;;
8622;SDS011;4349;47.552;8.904;2023-02-21T15:45:30;8.63;;;7.13;;
8622;SDS011;4349;47.552;8.904;2023-02-21T15:47:59;8.13;;;7.43;;
8622;SDS011;4349;47.552;8.904;2023-02-21T15:50:29;8.90;;;8.10;;
8622;SDS011;4349;47.552;8.904;2023-02-21T15:53:09;9.13;;;8.30;;
8622;SDS011;4349;47.552;8.904;2023-02-21T15:55:36;8.73;;;8.03;;
8622;SDS011;4349;47.552;8.904;2023-02-21T15:58:11;8.37;;;7.67;;